< < Back
Terminal Aerodrome Forecast


Current Version              Previous Versions:   1  2  3  4  5  6  7  8  9  

Terminal Aerodrome Forecast

258
FTUS42 KTAE 300500
TAFTLH
TAF
KTLH 300530Z 3006/3106 00000KT P6SM FEW250
      TEMPO 3010/3012 BKN025
     FM301300 34010G15KT P6SM FEW250
     FM310000 36004KT P6SM SKC=

Latest METAR

912
SAUS80 KWBC 301700 RRA
MTRTLH
METAR KTLH 301653Z 36012G21KT 10SM SCT250 14/01 A3028 RMK AO2 SLP252
T01440011 $


USA.gov is the U.S. government's official web portal to all federal, state and local government web resources and services.